Time;durP1;ratioP1;P1;durP2;ratioP2;P2;SDS_P1;SDS_P2;PMS_P1;PMS_P2;Temp;Humidity;BMP_temperature;BMP_pressure;BME280_temperature;BME280_humidity;BME280_pressure;Samples;Min_cycle;Max_cycle;Signal;HPM_P1;HPM_P2
2023/05/04 00:00:26;;;;;;;;;;;;;;;4.55;90.94;101870.72;5073385;28;20378;-68
2023/05/04 00:02:51;;;;;;;;;;;;;;;4.57;91.06;101867.03;5073495;28;19919;-67
2023/05/04 00:05:17;;;;;;;;;;;;;;;4.58;91.59;101863.47;5073635;28;20372;-66
2023/05/04 00:07:42;;;;;;;;;;;;;;;4.59;91.27;101859.88;5073329;28;19913;-66
2023/05/04 00:10:08;;;;;;;;;;;;;;;4.58;91.68;101852.91;5073694;28;20019;-67
2023/05/04 00:12:34;;;;;;;;;;;;;;;4.56;92.07;101854.78;5073371;28;19963;-67
2023/05/04 00:14:59;;;;;;;;;;;;;;;4.49;93.14;101861.41;5074055;28;20014;-66
2023/05/04 00:17:25;;;;;;;;;;;;;;;4.45;93.28;101852.00;5075013;28;20360;-66
2023/05/04 00:19:50;;;;;;;;;;;;;;;4.42;92.87;101851.34;5073367;28;20021;-67
2023/05/04 00:22:15;;;;;;;;;;;;;;;4.41;93.77;101841.75;5073029;28;19912;-66
2023/05/04 00:24:42;;;;;;;;;;;;;;;4.38;94.16;101839.31;5073049;28;19912;-66
2023/05/04 00:27:09;;;;;;;;;;;;;;;4.37;94.72;101840.25;5072922;28;19916;-66
2023/05/04 00:29:34;;;;;;;;;;;;;;;4.36;95.22;101842.03;5072892;28;19913;-67
2023/05/04 00:32:00;;;;;;;;;;;;;;;4.35;95.16;101835.06;5073044;28;19965;-65
2023/05/04 00:34:25;;;;;;;;;;;;;;;4.31;95.98;101838.81;5072941;28;20380;-66
2023/05/04 00:36:51;;;;;;;;;;;;;;;4.26;96.25;101835.63;5072946;28;19919;-67
2023/05/04 00:39:16;;;;;;;;;;;;;;;4.23;96.98;101838.44;5072699;28;20006;-67
2023/05/04 00:41:43;;;;;;;;;;;;;;;4.22;97.14;101834.97;5072658;28;19919;-66
2023/05/04 00:44:08;;;;;;;;;;;;;;;4.21;97.96;101835.91;5073141;28;19912;-68
2023/05/04 00:46:35;;;;;;;;;;;;;;;4.15;99.11;101836.31;5072600;28;19917;-67
2023/05/04 00:49:01;;;;;;;;;;;;;;;4.14;99.26;101837.25;5072737;28;19917;-68
2023/05/04 00:51:27;;;;;;;;;;;;;;;4.13;98.52;101839.97;5072638;28;19913;-68
2023/05/04 00:53:56;;;;;;;;;;;;;;;4.08;99.63;101842.06;5072424;28;20364;-69
2023/05/04 00:56:22;;;;;;;;;;;;;;;4.07;99.60;101848.28;5072408;28;19919;-68
2023/05/04 00:58:48;;;;;;;;;;;;;;;4.07;99.10;101840.38;5072711;28;19916;-67
2023/05/04 01:01:13;;;;;;;;;;;;;;;4.07;100.00;101840.38;5072429;28;19912;-68
2023/05/04 01:03:39;;;;;;;;;;;;;;;4.04;100.00;101836.94;5072410;28;19920;-67
2023/05/04 01:06:16;;;;;;;;;;;;;;;4.01;100.00;101845.03;5072348;28;20314;-68
2023/05/04 01:08:46;;;;;;;;;;;;;;;3.98;100.00;101844.38;5072313;28;19919;-67
2023/05/04 01:11:18;;;;;;;;;;;;;;;3.97;99.05;101846.19;5072221;28;19912;-66
2023/05/04 01:13:47;;;;;;;;;;;;;;;3.97;99.42;101845.31;5072238;28;20260;-67
2023/05/04 01:16:13;;;;;;;;;;;;;;;3.93;99.34;101849.94;5072308;28;19919;-65
2023/05/04 01:18:38;;;;;;;;;;;;;;;3.92;99.60;101848.25;5072229;28;19912;-67
2023/05/04 01:21:03;;;;;;;;;;;;;;;3.89;100.00;101837.91;5072119;28;19912;-66
2023/05/04 01:23:28;;;;;;;;;;;;;;;3.92;100.00;101840.34;5072165;28;19956;-67
2023/05/04 01:26:06;;;;;;;;;;;;;;;3.93;100.00;101843.81;5071003;28;19919;-66
2023/05/04 01:28:37;;;;;;;;;;;;;;;3.98;100.00;101850.50;5072262;28;20026;-66
2023/05/04 01:31:04;;;;;;;;;;;;;;;4.08;99.54;101847.31;5072312;28;19912;-66
2023/05/04 01:33:30;;;;;;;;;;;;;;;4.17;100.00;101852.88;5071120;28;19913;-66
2023/05/04 01:35:55;;;;;;;;;;;;;;;4.25;100.00;101844.47;5072338;28;19913;-66
2023/05/04 01:38:21;;;;;;;;;;;;;;;4.28;99.19;101842.50;5072622;28;19916;-66
2023/05/04 01:40:46;;;;;;;;;;;;;;;4.28;99.61;101849.56;5072350;28;19913;-67
2023/05/04 01:43:11;;;;;;;;;;;;;;;4.25;98.88;101852.38;5076014;28;19912;-67
2023/05/04 01:45:37;;;;;;;;;;;;;;;4.21;99.83;101858.81;5076081;28;19916;-67
2023/05/04 01:48:02;;;;;;;;;;;;;;;4.19;98.99;101852.78;5075934;28;19916;-67
2023/05/04 01:50:27;;;;;;;;;;;;;;;4.19;99.01;101852.78;5075714;28;19921;-65
2023/05/04 01:52:53;;;;;;;;;;;;;;;4.17;98.96;101858.16;5075756;28;19913;-67
2023/05/04 01:55:18;;;;;;;;;;;;;;;4.18;98.26;101854.56;5076046;28;19919;-67
2023/05/04 01:57:44;;;;;;;;;;;;;;;4.21;99.15;101858.81;5075931;28;19913;-67
2023/05/04 02:00:09;;;;;;;;;;;;;;;4.28;98.49;101858.31;5075786;28;20393;-67
2023/05/04 02:02:35;;;;;;;;;;;;;;;4.39;98.73;101860.31;5075769;28;19912;-68
2023/05/04 02:05:00;;;;;;;;;;;;;;;4.40;97.41;101867.28;5075723;28;20020;-66
2023/05/04 02:07:25;;;;;;;;;;;;;;;4.43;97.70;101864.44;5075492;28;20014;-66
2023/05/04 02:09:51;;;;;;;;;;;;;;;4.51;97.39;101870.06;5075979;28;19912;-66
2023/05/04 02:12:16;;;;;;;;;;;;;;;4.59;96.98;101865.16;5075508;28;19912;-67
2023/05/04 02:14:41;;;;;;;;;;;;;;;4.66;96.29;101863.84;5075653;28;20014;-65
2023/05/04 02:17:07;;;;;;;;;;;;;;;4.69;96.61;101865.44;5075448;28;19924;-65
2023/05/04 02:19:32;;;;;;;;;;;;;;;4.71;96.29;101866.19;5075344;28;19920;-68
2023/05/04 02:21:57;;;;;;;;;;;;;;;4.77;97.22;101872.84;5075036;28;19932;-67
2023/05/04 02:24:23;;;;;;;;;;;;;;;4.84;96.96;101874.16;5075302;28;19919;-67
2023/05/04 02:26:48;;;;;;;;;;;;;;;4.92;96.71;101874.53;5075015;28;19920;-66
2023/05/04 02:29:13;;;;;;;;;;;;;;;4.94;96.73;101870.00;5075206;28;19919;-68
2023/05/04 02:31:39;;;;;;;;;;;;;;;4.97;96.30;101875.91;5108012;28;20356;-68
2023/05/04 02:34:04;;;;;;;;;;;;;;;4.99;96.81;101878.47;5075566;28;19958;-66
2023/05/04 02:36:30;;;;;;;;;;;;;;;4.95;96.85;101877.81;5075281;28;19913;-66
2023/05/04 02:38:55;;;;;;;;;;;;;;;4.97;96.83;101880.34;5075347;28;20042;-66
2023/05/04 02:41:21;;;;;;;;;;;;;;;5.01;96.78;101878.34;5075500;28;20345;-67
2023/05/04 02:43:46;;;;;;;;;;;;;;;5.03;96.23;101874.66;5075607;28;19913;-67
2023/05/04 02:46:11;;;;;;;;;;;;;;;5.07;95.52;101876.16;5075627;28;19917;-66
2023/05/04 02:48:37;;;;;;;;;;;;;;;5.11;95.60;101877.66;5075970;28;20015;-67
2023/05/04 02:51:02;;;;;;;;;;;;;;;5.15;96.03;101868.56;5075393;28;20287;-67
2023/05/04 02:53:27;;;;;;;;;;;;;;;5.21;95.92;101881.41;5074129;28;19999;-67
2023/05/04 02:55:53;;;;;;;;;;;;;;;5.26;95.32;101881.94;5075451;28;20194;-68
2023/05/04 02:58:18;;;;;;;;;;;;;;;5.26;95.29;101881.94;5075029;28;20279;-65
2023/05/04 03:00:43;;;;;;;;;;;;;;;5.24;96.33;101877.72;5074677;28;19917;-68
2023/05/04 03:03:09;;;;;;;;;;;;;;;5.21;96.49;101884.03;5074890;28;20057;-69
2023/05/04 03:05:34;;;;;;;;;;;;;;;5.13;97.85;101872.25;5074730;28;19919;-72
2023/05/04 03:07:59;;;;;;;;;;;;;;;5.07;98.29;101876.16;5074534;28;20004;-66
2023/05/04 03:10:25;;;;;;;;;;;;;;;5.04;97.88;101871.06;5074430;28;19913;-66
2023/05/04 03:12:50;;;;;;;;;;;;;;;5.07;98.21;101870.88;5074284;28;19913;-67
2023/05/04 03:15:21;;;;;;;;;;;;;;;5.13;97.87;101859.91;5074626;28;19916;-66
2023/05/04 03:17:47;;;;;;;;;;;;;;;5.16;98.69;101862.34;5074565;28;19958;-68
2023/05/04 03:20:12;;;;;;;;;;;;;;;5.17;98.06;101864.03;5074436;28;19913;-66
2023/05/04 03:22:38;;;;;;;;;;;;;;;5.23;98.90;101871.56;5074415;28;20372;-67
2023/05/04 03:25:03;;;;;;;;;;;;;;;5.19;98.70;101872.69;5074558;28;19912;-67
2023/05/04 03:27:29;;;;;;;;;;;;;;;5.27;98.28;101882.78;5074093;28;19912;-67
2023/05/04 03:29:54;;;;;;;;;;;;;;;5.28;98.69;101885.31;5074140;28;19913;-67
2023/05/04 03:32:19;;;;;;;;;;;;;;;5.24;98.78;101883.84;5074152;28;19919;-66
2023/05/04 03:34:45;;;;;;;;;;;;;;;5.20;98.94;101876.19;5074208;28;20040;-68
2023/05/04 03:37:11;;;;;;;;;;;;;;;5.18;98.79;101884.22;5073738;28;19912;-66
2023/05/04 03:39:36;;;;;;;;;;;;;;;5.19;99.52;101887.69;5075434;28;20093;-68
2023/05/04 03:42:02;;;;;;;;;;;;;;;5.20;98.67;101885.00;5075677;28;19913;-67
2023/05/04 03:44:27;;;;;;;;;;;;;;;5.25;98.24;101882.88;5075532;28;20419;-67
2023/05/04 03:46:53;;;;;;;;;;;;;;;5.21;98.91;101894.59;5075111;28;19917;-66
2023/05/04 03:49:18;;;;;;;;;;;;;;;5.08;97.65;101893.69;5075446;28;19916;-65
2023/05/04 03:51:43;;;;;;;;;;;;;;;5.04;97.54;101892.19;5074035;28;20334;-65
2023/05/04 03:54:09;;;;;;;;;;;;;;;5.11;96.97;101905.84;5074868;28;19912;-68
2023/05/04 03:56:34;;;;;;;;;;;;;;;4.92;95.41;101914.13;5073927;28;20368;-68
2023/05/04 03:59:00;;;;;;;;;;;;;;;4.68;95.84;101910.41;5073567;28;20020;-66
2023/05/04 04:01:25;;;;;;;;;;;;;;;4.63;96.57;101921.25;5073504;28;19912;-67
2023/05/04 04:03:51;;;;;;;;;;;;;;;4.62;95.91;101915.09;5073158;28;19913;-68
2023/05/04 04:06:16;;;;;;;;;;;;;;;4.65;95.92;101901.72;5073575;28;19920;-68
2023/05/04 04:08:41;;;;;;;;;;;;;;;4.79;95.57;101907.91;5073460;28;19913;-68
2023/05/04 04:11:07;;;;;;;;;;;;;;;4.87;95.75;101911.75;5105755;28;19919;-67
2023/05/04 04:13:32;;;;;;;;;;;;;;;5.03;94.69;101916.91;5072887;28;19912;-67
2023/05/04 04:15:58;;;;;;;;;;;;;;;5.12;93.41;101913.66;5072565;28;19920;-67
2023/05/04 04:18:23;;;;;;;;;;;;;;;5.03;93.97;101916.91;5072818;28;19919;-69
2023/05/04 04:20:49;;;;;;;;;;;;;;;5.01;93.84;101908.25;5055103;28;19919;-68
2023/05/04 04:23:17;;;;;;;;;;;;;;;4.93;93.99;101914.03;5073011;28;19919;-69
2023/05/04 04:25:43;;;;;;;;;;;;;;;4.76;93.89;101913.38;5073034;28;19913;-65
2023/05/04 04:28:09;;;;;;;;;;;;;;;4.40;95.04;101914.75;5072302;28;19917;-69
2023/05/04 04:30:34;;;;;;;;;;;;;;;4.28;95.94;101923.41;5072621;28;19913;-66
2023/05/04 04:32:59;;;;;;;;;;;;;;;4.21;96.03;101922.09;5072569;28;19913;-68
2023/05/04 04:35:26;;;;;;;;;;;;;;;4.33;96.41;101927.44;5071838;28;19913;-68
2023/05/04 04:37:51;;;;;;;;;;;;;;;4.69;95.33;101928.78;5072444;28;20386;-68
2023/05/04 04:40:17;;;;;;;;;;;;;;;5.17;93.46;101927.41;5072802;28;19920;-70
2023/05/04 04:42:42;;;;;;;;;;;;;;;5.50;91.93;101920.91;5072426;28;19978;-67
2023/05/04 04:45:07;;;;;;;;;;;;;;;5.60;90.49;101922.81;5072560;28;19974;-67
2023/05/04 04:47:34;;;;;;;;;;;;;;;5.59;90.83;101931.69;5072636;28;20073;-67
2023/05/04 04:50:00;;;;;;;;;;;;;;;5.54;90.35;101925.03;5071811;28;19916;-68
2023/05/04 04:52:25;;;;;;;;;;;;;;;5.50;90.63;101932.31;5072798;28;19939;-67
2023/05/04 04:54:51;;;;;;;;;;;;;;;5.41;90.60;101938.19;5072533;28;19989;-66
2023/05/04 04:57:16;;;;;;;;;;;;;;;5.37;90.46;101946.41;5072391;28;19966;-65
2023/05/04 04:59:42;;;;;;;;;;;;;;;5.38;90.19;101945.47;5072263;28;19924;-66
2023/05/04 05:02:08;;;;;;;;;;;;;;;5.43;90.63;101943.38;5072697;28;20013;-66
2023/05/04 05:04:34;;;;;;;;;;;;;;;5.48;90.34;101935.97;5072747;28;19982;-66
2023/05/04 05:06:59;;;;;;;;;;;;;;;5.50;90.40;101942.03;5072572;28;19974;-68
2023/05/04 05:09:25;;;;;;;;;;;;;;;5.45;89.93;101933.53;5072236;28;20356;-65
2023/05/04 05:11:50;;;;;;;;;;;;;;;5.46;89.40;101940.50;5071423;28;19912;-65
2023/05/04 05:14:16;;;;;;;;;;;;;;;5.41;89.84;101942.63;5072311;28;19912;-66
2023/05/04 05:16:41;;;;;;;;;;;;;;;5.32;89.36;101948.50;5072080;28;20322;-67
2023/05/04 05:19:06;;;;;;;;;;;;;;;5.20;90.18;101936.94;5073497;28;20064;-67
2023/05/04 05:21:32;;;;;;;;;;;;;;;5.07;89.87;101928.97;5070960;28;20382;-67
2023/05/04 05:23:57;;;;;;;;;;;;;;;4.99;90.38;101947.09;5072112;28;19923;-68
2023/05/04 05:26:23;;;;;;;;;;;;;;;5.15;89.66;101945.16;5072111;28;19916;-67
2023/05/04 05:28:49;;;;;;;;;;;;;;;5.31;88.26;101946.81;5071936;28;19913;-69
2023/05/04 05:31:14;;;;;;;;;;;;;;;5.48;88.27;101943.91;5072120;28;19919;-71
2023/05/04 05:33:39;;;;;;;;;;;;;;;5.73;87.44;101941.34;5071985;28;19927;-68
2023/05/04 05:36:05;;;;;;;;;;;;;;;5.85;86.47;101950.25;5070726;28;19943;-68
2023/05/04 05:38:30;;;;;;;;;;;;;;;6.03;85.39;101945.53;5071968;28;19959;-68
2023/05/04 05:40:56;;;;;;;;;;;;;;;6.20;85.78;101951.38;5071880;28;19917;-70
2023/05/04 05:43:21;;;;;;;;;;;;;;;6.64;84.79;101941.28;5071856;28;19912;-70
2023/05/04 05:45:47;;;;;;;;;;;;;;;7.06;82.75;101951.47;5070237;28;19935;-67
2023/05/04 05:48:12;;;;;;;;;;;;;;;6.92;80.43;101962.19;5072162;28;19917;-68
2023/05/04 05:50:38;;;;;;;;;;;;;;;6.53;80.22;101972.00;5072127;28;19927;-69
2023/05/04 05:53:03;;;;;;;;;;;;;;;6.36;81.79;101968.81;5071787;28;19981;-67
2023/05/04 05:55:28;;;;;;;;;;;;;;;6.14;82.17;101964.19;5071675;28;19950;-68
2023/05/04 05:57:54;;;;;;;;;;;;;;;6.05;83.49;101964.78;5071883;28;20520;-69
2023/05/04 06:00:19;;;;;;;;;;;;;;;5.98;83.29;101974.09;5071992;28;19963;-68
2023/05/04 06:02:44;;;;;;;;;;;;;;;5.80;84.03;101970.88;5072062;28;19920;-67
2023/05/04 06:05:10;;;;;;;;;;;;;;;5.67;84.89;101975.25;5071859;28;20423;-67
2023/05/04 06:07:35;;;;;;;;;;;;;;;5.63;84.68;101979.06;5071889;28;20306;-67
2023/05/04 06:10:01;;;;;;;;;;;;;;;5.56;85.83;101979.47;5072379;28;20014;-69
2023/05/04 06:12:28;;;;;;;;;;;;;;;5.50;85.74;101976.38;5073499;28;19916;-68
2023/05/04 06:14:53;;;;;;;;;;;;;;;5.41;86.16;101976.97;5072753;28;20335;-69
2023/05/04 06:17:20;;;;;;;;;;;;;;;5.39;87.01;101981.50;5073415;28;19917;-69
2023/05/04 06:19:46;;;;;;;;;;;;;;;5.55;86.90;101976.94;5072682;28;19913;-69
2023/05/04 06:22:12;;;;;;;;;;;;;;;5.78;84.45;101978.03;5072984;28;20369;-68
2023/05/04 06:24:37;;;;;;;;;;;;;;;5.89;84.21;101980.81;5072793;28;20372;-67
2023/05/04 06:27:03;;;;;;;;;;;;;;;5.86;84.03;101981.88;5074201;28;19951;-68
2023/05/04 06:29:29;;;;;;;;;;;;;;;5.78;83.97;101989.47;5076076;28;20288;-69
2023/05/04 06:31:55;;;;;;;;;;;;;;;5.81;83.65;101988.44;5075704;28;19923;-69
2023/05/04 06:34:20;;;;;;;;;;;;;;;5.88;83.56;101995.84;5075727;28;19913;-67
2023/05/04 06:36:45;;;;;;;;;;;;;;;5.81;82.78;101994.56;5073857;28;20283;-69
2023/05/04 06:39:11;;;;;;;;;;;;;;;5.67;82.77;102001.69;5074107;28;19917;-70
2023/05/04 06:41:36;;;;;;;;;;;;;;;5.58;82.69;102005.78;5074852;28;19918;-69
2023/05/04 06:44:05;;;;;;;;;;;;;;;5.68;82.79;101998.94;5075107;28;20383;-70
2023/05/04 06:46:33;;;;;;;;;;;;;;;5.73;82.35;102001.28;5074856;28;19916;-69
2023/05/04 06:48:59;;;;;;;;;;;;;;;5.71;83.20;102004.03;5074555;28;19917;-70
2023/05/04 06:51:27;;;;;;;;;;;;;;;5.64;82.69;102002.75;5075043;28;19912;-69
2023/05/04 06:53:53;;;;;;;;;;;;;;;5.68;82.89;101996.31;5074903;28;19913;-69
2023/05/04 06:56:20;;;;;;;;;;;;;;;5.77;83.02;102003.63;5075013;28;19923;-69
2023/05/04 06:58:45;;;;;;;;;;;;;;;6.00;81.89;102003.91;5091864;28;19963;-70
2023/05/04 07:01:13;;;;;;;;;;;;;;;6.16;80.34;101999.31;5092762;28;19928;-72
2023/05/04 07:03:39;;;;;;;;;;;;;;;6.25;79.97;102008.41;5075519;28;19913;-68
2023/05/04 07:06:04;;;;;;;;;;;;;;;6.32;78.99;102007.03;5075357;28;19913;-69
2023/05/04 07:08:30;;;;;;;;;;;;;;;6.29;78.27;102009.91;5074861;28;19919;-71
2023/05/04 07:10:57;;;;;;;;;;;;;;;6.08;78.79;102007.78;5075356;28;20053;-69
2023/05/04 07:13:23;;;;;;;;;;;;;;;6.08;79.93;102013.06;5075186;28;19975;-69
2023/05/04 07:15:49;;;;;;;;;;;;;;;6.15;77.66;102010.84;5073975;28;20276;-69
2023/05/04 07:18:15;;;;;;;;;;;;;;;6.16;78.55;102016.03;5074590;28;19916;-68
2023/05/04 07:20:43;;;;;;;;;;;;;;;6.22;77.62;102014.75;5074452;28;19913;-70
2023/05/04 07:23:13;;;;;;;;;;;;;;;6.38;77.63;102023.38;5074221;28;20394;-70
2023/05/04 07:25:38;;;;;;;;;;;;;;;6.63;77.73;102017.19;5072807;28;19940;-70
2023/05/04 07:28:04;;;;;;;;;;;;;;;6.82;75.83;102022.06;5074171;28;20248;-69
2023/05/04 07:30:29;;;;;;;;;;;;;;;6.86;74.86;102030.66;5074291;28;19919;-69
2023/05/04 07:32:54;;;;;;;;;;;;;;;6.48;73.38;102026.22;5074090;28;19956;-68
2023/05/04 07:35:20;;;;;;;;;;;;;;;6.33;74.63;102025.44;5074024;28;19913;-69
2023/05/04 07:37:45;;;;;;;;;;;;;;;6.40;75.28;102024.09;5073805;28;20252;-68
2023/05/04 07:40:14;;;;;;;;;;;;;;;6.60;73.96;102029.81;5073062;28;19959;-70
2023/05/04 07:42:40;;;;;;;;;;;;;;;6.71;70.00;102032.56;5073694;28;20011;-69
2023/05/04 07:45:08;;;;;;;;;;;;;;;6.83;69.10;102023.75;5073976;28;19920;-70
2023/05/04 07:47:35;;;;;;;;;;;;;;;6.97;69.18;102023.66;5073978;28;20288;-70
2023/05/04 07:50:01;;;;;;;;;;;;;;;7.07;68.54;102029.97;5073347;28;20356;-68
2023/05/04 07:52:32;;;;;;;;;;;;;;;6.70;67.25;102044.13;5073025;28;21290;-68
2023/05/04 07:54:58;;;;;;;;;;;;;;;6.29;68.85;102039.00;5072879;28;19924;-70
2023/05/04 07:57:24;;;;;;;;;;;;;;;6.14;69.19;102048.81;5074738;28;19970;-73
2023/05/04 07:59:58;;;;;;;;;;;;;;;5.94;69.03;102050.13;5040141;28;19916;-71
2023/05/04 08:02:24;;;;;;;;;;;;;;;5.81;69.31;102046.59;5074734;28;19912;-70
2023/05/04 08:04:49;;;;;;;;;;;;;;;5.95;68.84;102048.34;5073314;28;20332;-67
2023/05/04 08:07:16;;;;;;;;;;;;;;;6.34;67.27;102040.38;5074608;28;19919;-69
2023/05/04 08:09:41;;;;;;;;;;;;;;;6.84;64.96;102038.69;5073660;28;19912;-67
2023/05/04 08:12:07;;;;;;;;;;;;;;;7.21;64.21;102041.38;5073692;28;19916;-68
2023/05/04 08:14:37;;;;;;;;;;;;;;;7.42;59.84;102051.31;5055535;28;19913;-68
2023/05/04 08:17:04;;;;;;;;;;;;;;;7.51;56.20;102049.78;5074225;28;19913;-69
2023/05/04 08:19:29;;;;;;;;;;;;;;;7.51;56.06;102047.13;5073489;28;20387;-70
2023/05/04 08:21:55;;;;;;;;;;;;;;;7.53;53.86;102049.69;5072929;28;19957;-71
2023/05/04 08:24:23;;;;;;;;;;;;;;;7.52;52.80;102051.50;5072374;28;20391;-72
2023/05/04 08:26:55;;;;;;;;;;;;;;;7.01;52.43;102051.63;5073452;28;19952;-69
2023/05/04 08:29:21;;;;;;;;;;;;;;;6.84;53.72;102050.13;5073548;28;20430;-71
2023/05/04 08:31:46;;;;;;;;;;;;;;;7.03;55.25;102059.44;5072901;28;19952;-69
2023/05/04 08:34:11;;;;;;;;;;;;;;;7.26;55.47;102060.47;5073386;28;19913;-69
2023/05/04 08:36:37;;;;;;;;;;;;;;;7.21;56.22;102058.13;5073242;28;19912;-68
2023/05/04 08:39:06;;;;;;;;;;;;;;;6.97;57.97;102066.03;5071938;28;20387;-69
2023/05/04 08:41:32;;;;;;;;;;;;;;;6.58;58.88;102053.75;5073395;28;19912;-69
2023/05/04 08:44:00;;;;;;;;;;;;;;;6.44;60.29;102067.09;5086461;28;20528;-69
2023/05/04 08:46:30;;;;;;;;;;;;;;;6.34;61.62;102066.84;5092376;28;19962;-68
2023/05/04 08:48:57;;;;;;;;;;;;;;;6.13;60.95;102082.38;5094258;28;20291;-71
2023/05/04 08:51:28;;;;;;;;;;;;;;;5.98;57.68;102071.94;5091370;28;19959;-70
2023/05/04 08:53:53;;;;;;;;;;;;;;;5.89;56.92;102082.19;5092336;28;20400;-70
2023/05/04 08:56:18;;;;;;;;;;;;;;;5.97;57.01;102078.19;5092758;28;19912;-74
2023/05/04 08:58:48;;;;;;;;;;;;;;;6.18;54.99;102079.41;5094072;28;19919;-69
2023/05/04 09:01:15;;;;;;;;;;;;;;;6.35;52.68;102089.69;5096491;28;19936;-69
2023/05/04 09:03:42;;;;;;;;;;;;;;;6.60;52.85;102090.69;5094751;28;20351;-67
2023/05/04 09:06:08;;;;;;;;;;;;;;;6.85;52.09;102080.09;5093750;28;19912;-68
2023/05/04 09:08:33;;;;;;;;;;;;;;;7.01;50.62;102094.00;5092547;28;20002;-68
2023/05/04 09:10:59;;;;;;;;;;;;;;;7.11;50.96;102086.25;5087472;28;19928;-71
2023/05/04 09:13:25;;;;;;;;;;;;;;;7.31;51.69;102090.16;5052144;28;19912;-69
2023/05/04 09:15:57;;;;;;;;;;;;;;;7.51;49.45;102091.34;5052377;28;19912;-72
2023/05/04 09:18:22;;;;;;;;;;;;;;;7.37;49.00;102087.03;5051949;28;19917;-69
2023/05/04 09:20:48;;;;;;;;;;;;;;;7.32;51.04;102095.34;5052681;28;19927;-72
2023/05/04 09:23:14;;;;;;;;;;;;;;;7.24;50.41;102100.34;5091884;28;20267;-70
2023/05/04 09:25:47;;;;;;;;;;;;;;;7.14;51.54;102097.47;5072944;28;20019;-70
2023/05/04 09:28:13;;;;;;;;;;;;;;;7.09;52.54;102101.41;5064722;28;20011;-71
2023/05/04 09:30:39;;;;;;;;;;;;;;;7.18;53.56;102095.44;5056015;28;20026;-69
2023/05/04 09:33:04;;;;;;;;;;;;;;;7.23;52.60;102103.06;5058146;28;19996;-70
2023/05/04 09:35:29;;;;;;;;;;;;;;;7.14;53.19;102108.06;5088726;28;20341;-65
2023/05/04 09:37:56;;;;;;;;;;;;;;;7.31;52.38;102111.34;5078111;28;19912;-68
2023/05/04 09:40:39;;;;;;;;;;;;;;;7.14;53.33;102105.41;5071548;28;20020;-68
2023/05/04 09:43:05;;;;;;;;;;;;;;;7.02;50.97;102118.69;5071160;28;19912;-69
2023/05/04 09:45:38;;;;;;;;;;;;;;;7.05;50.39;102116.66;5071896;28;20024;-66
2023/05/04 09:48:13;;;;;;;;;;;;;;;7.17;48.80;102117.59;5071696;28;20268;-68
2023/05/04 09:50:39;;;;;;;;;;;;;;;7.34;48.31;102122.56;5072092;28;19920;-70
2023/05/04 09:53:06;;;;;;;;;;;;;;;7.39;48.76;102117.78;5071561;28;19912;-71
2023/05/04 09:55:31;;;;;;;;;;;;;;;7.55;49.61;102125.50;5071529;28;20249;-69
2023/05/04 09:57:59;;;;;;;;;;;;;;;7.41;49.64;102107.91;5073293;28;19935;-69
2023/05/04 10:00:26;;;;;;;;;;;;;;;7.13;50.96;102132.00;5074717;28;19912;-71
2023/05/04 10:02:52;;;;;;;;;;;;;;;6.86;51.57;102133.91;5075663;28;19919;-70
2023/05/04 10:05:20;;;;;;;;;;;;;;;6.76;51.26;102129.25;5075096;28;19917;-68
2023/05/04 10:07:45;;;;;;;;;;;;;;;6.75;50.26;102132.88;5107417;28;19912;-70
2023/05/04 10:10:12;;;;;;;;;;;;;;;6.81;49.15;102142.19;5075506;28;19912;-70
2023/05/04 10:12:37;;;;;;;;;;;;;;;6.91;49.98;102139.75;5075052;28;19918;-71
2023/05/04 10:15:05;;;;;;;;;;;;;;;6.93;48.98;102141.34;5075886;28;19912;-69
2023/05/04 10:17:37;;;;;;;;;;;;;;;6.93;49.67;102143.97;5074140;28;19912;-70
2023/05/04 10:20:06;;;;;;;;;;;;;;;6.77;48.97;102138.06;5074070;28;20015;-68
2023/05/04 10:22:47;;;;;;;;;;;;;;;6.68;48.90;102136.03;5075090;28;19917;-66
2023/05/04 10:25:23;;;;;;;;;;;;;;;6.57;48.13;102146.47;5075148;28;20422;-69
2023/05/04 10:28:08;;;;;;;;;;;;;;;6.72;47.54;102142.81;5075105;28;19943;-71
2023/05/04 10:30:33;;;;;;;;;;;;;;;7.23;46.33;102145.47;5075049;28;19966;-68
2023/05/04 10:33:02;;;;;;;;;;;;;;;7.50;46.34;102148.81;5075916;28;19912;-72
2023/05/04 10:35:28;;;;;;;;;;;;;;;7.69;46.46;102148.38;5055181;28;19913;-69
2023/05/04 10:37:57;;;;;;;;;;;;;;;7.61;45.83;102162.19;5077214;28;19964;-71
2023/05/04 10:40:36;;;;;;;;;;;;;;;7.31;46.56;102157.25;5095129;28;19912;-71
2023/05/04 10:43:01;;;;;;;;;;;;;;;6.97;45.69;102165.84;5096584;28;19912;-71
2023/05/04 10:45:33;;;;;;;;;;;;;;;6.89;43.58;102170.78;5095809;28;19957;-71
2023/05/04 10:48:01;;;;;;;;;;;;;;;6.87;44.81;102170.88;5096605;28;19927;-70
2023/05/04 10:50:27;;;;;;;;;;;;;;;6.81;44.38;102166.00;5102563;28;19959;-69
2023/05/04 10:52:52;;;;;;;;;;;;;;;6.96;45.13;102159.69;5110059;28;19915;-71
2023/05/04 10:55:18;;;;;;;;;;;;;;;7.04;46.02;102173.25;5105660;28;20061;-69
2023/05/04 10:57:50;;;;;;;;;;;;;;;7.11;44.94;102182.47;5105337;28;19919;-68
2023/05/04 11:00:16;;;;;;;;;;;;;;;7.23;44.20;102178.13;5104629;28;19912;-70
2023/05/04 11:02:42;;;;;;;;;;;;;;;7.19;45.29;102181.06;5068237;28;19919;-68
2023/05/04 11:05:08;;;;;;;;;;;;;;;7.20;44.77;102188.06;5071119;28;19956;-69
2023/05/04 11:07:39;;;;;;;;;;;;;;;7.24;45.29;102194.88;5064314;28;20019;-73
2023/05/04 11:10:18;;;;;;;;;;;;;;;7.20;45.78;102203.97;5060125;28;20015;-70
2023/05/04 11:12:45;;;;;;;;;;;;;;;6.93;44.38;102199.59;5052802;28;19916;-68
2023/05/04 11:15:10;;;;;;;;;;;;;;;6.66;44.50;102183.81;5053127;28;19965;-68
2023/05/04 11:17:45;;;;;;;;;;;;;;;6.58;45.06;102186.09;5054476;28;20003;-69
2023/05/04 11:20:10;;;;;;;;;;;;;;;6.74;44.56;102191.22;5054140;28;20403;-68
2023/05/04 11:22:37;;;;;;;;;;;;;;;6.78;45.12;102193.56;5054198;28;19916;-70
2023/05/04 11:25:07;;;;;;;;;;;;;;;6.81;44.27;102193.34;5055348;28;19987;-70
2023/05/04 11:27:34;;;;;;;;;;;;;;;7.03;44.16;102190.09;5054640;28;19912;-70
2023/05/04 11:30:03;;;;;;;;;;;;;;;6.83;43.20;102199.38;5055016;28;19920;-72
2023/05/04 11:32:36;;;;;;;;;;;;;;;6.76;42.85;102194.63;5053143;28;20058;-71
2023/05/04 11:35:05;;;;;;;;;;;;;;;6.77;42.87;102197.16;5054721;28;19944;-72
2023/05/04 11:38:12;;;;;;;;;;;;;;;6.94;41.75;102198.69;5057927;28;19920;-73
2023/05/04 11:40:46;;;;;;;;;;;;;;;7.34;41.17;102191.47;5059743;28;19912;-71
2023/05/04 11:43:24;;;;;;;;;;;;;;;7.49;41.01;102181.59;5070719;28;19913;-69
2023/05/04 11:45:50;;;;;;;;;;;;;;;7.65;41.37;102200.78;5070876;28;20011;-68
2023/05/04 11:48:16;;;;;;;;;;;;;;;7.63;40.68;102186.78;5073217;28;19920;-70
2023/05/04 11:50:41;;;;;;;;;;;;;;;7.48;40.07;102193.16;5073355;28;19912;-68
2023/05/04 11:53:13;;;;;;;;;;;;;;;7.62;41.22;102190.38;5067908;28;20357;-71
2023/05/04 11:55:40;;;;;;;;;;;;;;;7.59;41.09;102205.66;5054126;28;19920;-69
2023/05/04 11:58:06;;;;;;;;;;;;;;;7.22;42.12;102204.72;5053495;28;19955;-69
2023/05/04 12:00:39;;;;;;;;;;;;;;;7.18;39.98;102205.88;5054238;28;19913;-70
2023/05/04 12:03:07;;;;;;;;;;;;;;;7.13;40.14;102206.19;5070959;28;19920;-68
2023/05/04 12:05:33;;;;;;;;;;;;;;;7.11;38.80;102214.25;5057135;28;20284;-66
2023/05/04 12:07:59;;;;;;;;;;;;;;;7.28;38.05;102212.25;5067715;28;19917;-67
2023/05/04 12:10:28;;;;;;;;;;;;;;;7.56;38.68;102205.88;5072537;28;19917;-69
2023/05/04 12:12:54;;;;;;;;;;;;;;;7.86;38.59;102206.38;5072289;28;19935;-68
2023/05/04 12:15:40;;;;;;;;;;;;;;;8.02;38.26;102214.06;5073017;28;20443;-67
2023/05/04 12:18:05;;;;;;;;;;;;;;;8.02;38.94;102208.75;5071346;28;19951;-67
2023/05/04 12:20:31;;;;;;;;;;;;;;;8.01;39.79;102217.66;5072691;28;20702;-66
2023/05/04 12:23:07;;;;;;;;;;;;;;;7.99;38.62;102225.72;5071912;28;19924;-68
2023/05/04 12:25:32;;;;;;;;;;;;;;;7.95;38.04;102218.97;5073616;28;19912;-68
2023/05/04 12:27:57;;;;;;;;;;;;;;;7.77;37.97;102225.56;5073155;28;20039;-69
2023/05/04 12:30:23;;;;;;;;;;;;;;;7.49;38.86;102228.47;5074030;28;20352;-65
2023/05/04 12:32:48;;;;;;;;;;;;;;;7.44;38.04;102219.03;5074891;28;19916;-65
2023/05/04 12:35:13;;;;;;;;;;;;;;;7.35;38.72;102213.53;5073657;28;19912;-68
2023/05/04 12:37:39;;;;;;;;;;;;;;;7.35;39.59;102224.13;5072741;28;19970;-66
2023/05/04 12:40:05;;;;;;;;;;;;;;;7.38;39.94;102218.63;5072670;28;19966;-66
2023/05/04 12:42:31;;;;;;;;;;;;;;;7.55;38.17;102220.09;5072547;28;19913;-66